Time;durP1;ratioP1;P1;durP2;ratioP2;P2;SDS_P1;SDS_P2;PMS_P1;PMS_P2;Temp;Humidity;BMP_temperature;BMP_pressure;BME280_temperature;BME280_humidity;BME280_pressure;Samples;Min_cycle;Max_cycle;Signal;HPM_P1;HPM_P2
2023/07/11 00:00:08;;;;;;;;;;;;;;;-140.72;77.72;52409.13;4994493;28;19925;-73
2023/07/11 00:02:34;;;;;;;;;;;;;;;-140.72;89.17;52358.41;4978172;28;20367;-72
2023/07/11 00:04:59;;;;;;;;;;;;;;;-140.72;91.49;52403.03;4992215;28;19924;-72
2023/07/11 00:07:25;;;;;;;;;;;;;;;-140.72;86.94;52376.66;4979154;28;19922;-72
2023/07/11 00:09:50;;;;;;;;;;;;;;;-140.72;93.20;52429.41;4978084;28;20056;-72
2023/07/11 00:12:16;;;;;;;;;;;;;;;-140.72;97.11;52423.31;4974493;28;19918;-72
2023/07/11 00:14:41;;;;;;;;;;;;;;;-140.72;100.00;52431.44;4993904;28;19972;-72
2023/07/11 00:17:07;;;;;;;;;;;;;;;-140.72;100.00;52382.75;4993878;28;19956;-72
2023/07/11 00:19:45;;;;;;;;;;;;;;;-140.72;100.00;52419.28;4976109;28;19922;-72
2023/07/11 00:22:11;;;;;;;;;;;;;;;-140.72;100.00;52413.19;4976247;28;20376;-72
2023/07/11 00:24:36;;;;;;;;;;;;;;;-140.72;100.00;52405.06;4994354;28;19925;-72
2023/07/11 00:27:01;;;;;;;;;;;;;;;-140.72;100.00;52388.84;4994056;28;19922;-72
2023/07/11 00:29:27;;;;;;;;;;;;;;;-140.72;100.00;52378.69;4986615;28;19961;-72
2023/07/11 00:31:52;;;;;;;;;;;;;;;-140.72;100.00;52382.75;4988360;28;19940;-72
2023/07/11 00:34:17;;;;;;;;;;;;;;;-140.72;100.00;52413.19;4976648;28;19988;-72
2023/07/11 00:36:42;;;;;;;;;;;;;;;-140.72;100.00;52407.09;4976540;28;20271;-72
2023/07/11 00:39:08;;;;;;;;;;;;;;;-140.72;100.00;52415.22;4975846;28;19922;-72
2023/07/11 00:41:33;;;;;;;;;;;;;;;-140.72;100.00;52405.06;4979998;28;20035;-72
2023/07/11 00:43:58;;;;;;;;;;;;;;;-140.72;100.00;52461.88;4993883;28;19964;-72
2023/07/11 00:46:24;;;;;;;;;;;;;;;-140.72;100.00;52378.69;4993801;28;20005;-72
2023/07/11 00:49:04;;;;;;;;;;;;;;;-140.72;100.00;52403.03;4986900;28;19925;-72
2023/07/11 00:51:32;;;;;;;;;;;;;;;-140.72;100.00;52435.50;4987338;28;19922;-72
2023/07/11 00:53:58;;;;;;;;;;;;;;;-140.72;100.00;52398.97;4963548;28;20335;-72
2023/07/11 00:56:26;;;;;;;;;;;;;;;-140.72;100.00;52437.53;4992747;28;19917;-72
2023/07/11 00:58:51;;;;;;;;;;;;;;;-140.72;100.00;52423.31;4993393;28;20346;-72
2023/07/11 01:01:17;;;;;;;;;;;;;;;-140.72;100.00;52398.97;4992658;28;20020;-72
2023/07/11 01:03:43;;;;;;;;;;;;;;;-140.72;100.00;52378.69;4992940;28;19971;-72
2023/07/11 01:06:12;;;;;;;;;;;;;;;-140.72;100.00;52427.38;4985803;28;19918;-72
2023/07/11 01:08:38;;;;;;;;;;;;;;;-140.72;100.00;52403.03;4980901;28;20388;-72
2023/07/11 01:11:03;;;;;;;;;;;;;;;-140.72;100.00;52415.22;4992215;28;19924;-72
2023/07/11 01:13:30;;;;;;;;;;;;;;;-140.72;100.00;52415.22;4990687;28;19949;-72
2023/07/11 01:15:56;;;;;;;;;;;;;;;-140.72;100.00;52411.16;4987813;28;19922;-72
2023/07/11 01:18:21;;;;;;;;;;;;;;;-140.72;100.00;52427.38;4992744;28;19918;-73
2023/07/11 01:20:46;;;;;;;;;;;;;;;-140.72;100.00;52423.31;4992136;28;19918;-72
2023/07/11 01:23:12;;;;;;;;;;;;;;;-140.72;100.00;52382.75;4976482;28;20013;-72
2023/07/11 01:25:38;;;;;;;;;;;;;;;-140.72;100.00;52405.06;4977974;28;19933;-73
2023/07/11 01:28:04;;;;;;;;;;;;;;;-140.72;100.00;52423.31;4992970;28;20319;-71
2023/07/11 01:30:29;;;;;;;;;;;;;;;-140.72;100.00;52415.22;4975447;28;19928;-70
2023/07/11 01:32:54;;;;;;;;;;;;;;;-140.72;100.00;52405.06;4991368;28;20396;-71
2023/07/11 01:35:19;;;;;;;;;;;;;;;-140.72;100.00;52419.28;4992593;28;20052;-71
2023/07/11 01:37:45;;;;;;;;;;;;;;;-140.72;100.00;52431.44;4974763;28;19929;-71
2023/07/11 01:40:11;;;;;;;;;;;;;;;-140.72;100.00;52390.84;4988835;28;19929;-71
2023/07/11 01:42:36;;;;;;;;;;;;;;;-140.72;100.00;52419.28;4977894;28;19944;-71
2023/07/11 01:45:03;;;;;;;;;;;;;;;-140.72;100.00;52394.91;4986411;28;19922;-71
2023/07/11 01:47:28;;;;;;;;;;;;;;;-140.72;100.00;52419.28;4989347;28;20185;-71
2023/07/11 01:49:53;;;;;;;;;;;;;;;-140.72;100.00;52392.88;4993482;28;19928;-71
2023/07/11 01:52:20;;;;;;;;;;;;;;;-140.72;100.00;52443.63;4990032;28;20000;-71
2023/07/11 01:54:45;;;;;;;;;;;;;;;-140.72;100.00;52390.84;4977356;28;19969;-71
2023/07/11 01:57:11;;;;;;;;;;;;;;;-140.72;100.00;52449.72;4986846;28;19963;-71
2023/07/11 01:59:37;;;;;;;;;;;;;;;-140.72;100.00;52417.25;4987635;28;19922;-71
2023/07/11 02:02:03;;;;;;;;;;;;;;;-140.72;100.00;52392.88;4974198;28;19925;-71
2023/07/11 02:04:29;;;;;;;;;;;;;;;-140.72;100.00;52433.47;4988148;28;20368;-72
2023/07/11 02:06:54;;;;;;;;;;;;;;;-140.72;100.00;52405.06;4990089;28;19922;-71
2023/07/11 02:09:20;;;;;;;;;;;;;;;-140.72;100.00;52398.97;4986001;28;19918;-71
2023/07/11 02:11:45;;;;;;;;;;;;;;;-140.72;100.00;52463.91;4989651;28;19968;-71
2023/07/11 02:14:15;;;;;;;;;;;;;;;-140.72;100.00;52407.09;4988329;28;19961;-71
2023/07/11 02:16:44;;;;;;;;;;;;;;;-140.72;100.00;52427.38;4976271;28;20470;-71
2023/07/11 02:19:16;;;;;;;;;;;;;;;-140.72;100.00;52459.84;4993304;28;19929;-71
2023/07/11 02:21:41;;;;;;;;;;;;;;;-140.72;100.00;52447.69;4980499;28;19961;-71
2023/07/11 02:24:19;;;;;;;;;;;;;;;-140.72;100.00;52437.53;4991740;28;19996;-71
2023/07/11 02:26:44;;;;;;;;;;;;;;;-140.72;100.00;52421.28;5005333;28;19945;-71
2023/07/11 02:29:10;;;;;;;;;;;;;;;-140.72;100.00;52419.28;4996296;28;19918;-71
2023/07/11 02:31:36;;;;;;;;;;;;;;;-140.72;100.00;52453.75;4995773;28;19918;-71
2023/07/11 02:34:13;;;;;;;;;;;;;;;-140.72;100.00;52449.72;4988712;28;19937;-71
2023/07/11 02:36:38;;;;;;;;;;;;;;;-140.72;100.00;52419.28;4988237;28;19928;-71
2023/07/11 02:39:04;;;;;;;;;;;;;;;-140.72;100.00;52413.19;4977875;28;19922;-72
2023/07/11 02:41:39;;;;;;;;;;;;;;;-140.72;100.00;52447.69;4993262;28;19926;-72
2023/07/11 02:44:04;;;;;;;;;;;;;;;-140.72;100.00;52431.44;4995015;28;19921;-71
2023/07/11 02:46:29;;;;;;;;;;;;;;;-140.72;100.00;52451.72;4993120;28;19926;-72
2023/07/11 02:49:10;;;;;;;;;;;;;;;-140.72;100.00;52403.03;4993175;28;19929;-71
2023/07/11 02:51:36;;;;;;;;;;;;;;;-140.72;100.00;52455.78;4988597;28;19918;-71
2023/07/11 02:54:02;;;;;;;;;;;;;;;-140.72;100.00;52467.97;4994232;28;19917;-72
2023/07/11 02:56:27;;;;;;;;;;;;;;;-140.72;100.00;52449.72;4983477;28;19918;-71
2023/07/11 02:58:53;;;;;;;;;;;;;;;-140.72;100.00;52425.34;4995028;28;19956;-71
2023/07/11 03:01:18;;;;;;;;;;;;;;;-140.72;100.00;52419.28;4995547;28;19922;-71
2023/07/11 03:03:45;;;;;;;;;;;;;;;-140.72;100.00;52455.78;4987334;28;19976;-71
2023/07/11 03:06:10;;;;;;;;;;;;;;;-140.72;100.00;52494.34;4983070;28;20012;-72
2023/07/11 03:08:35;;;;;;;;;;;;;;;-140.72;100.00;52433.47;4984097;28;19965;-71
2023/07/11 03:11:01;;;;;;;;;;;;;;;-140.72;100.00;52429.41;4995416;28;19921;-71
2023/07/11 03:13:26;;;;;;;;;;;;;;;-140.72;100.00;52417.25;4987065;28;20016;-71
2023/07/11 03:15:52;;;;;;;;;;;;;;;-140.72;100.00;52415.22;4977614;28;20394;-71
2023/07/11 03:18:23;;;;;;;;;;;;;;;-140.72;100.00;52427.38;4973788;28;19922;-71
2023/07/11 03:20:48;;;;;;;;;;;;;;;-140.72;100.00;52425.34;4977587;28;20016;-71
2023/07/11 03:23:14;;;;;;;;;;;;;;;-140.72;100.00;52425.34;4977439;28;19953;-71
2023/07/11 03:25:42;;;;;;;;;;;;;;;-140.72;100.00;52439.56;4992965;28;19922;-71
2023/07/11 03:28:07;;;;;;;;;;;;;;;-140.72;100.00;52455.78;4994466;28;19922;-71
2023/07/11 03:30:34;;;;;;;;;;;;;;;-140.72;100.00;52461.88;4995252;28;20005;-71
2023/07/11 03:32:59;;;;;;;;;;;;;;;-140.72;100.00;52425.34;4992371;28;20305;-70
2023/07/11 03:35:24;;;;;;;;;;;;;;;-140.72;100.00;52433.47;4995194;28;19921;-71
2023/07/11 03:37:49;;;;;;;;;;;;;;;-140.72;100.00;52459.84;4997189;28;19920;-71
2023/07/11 03:40:15;;;;;;;;;;;;;;;-140.72;100.00;52407.09;4997150;28;19976;-71
2023/07/11 03:42:40;;;;;;;;;;;;;;;-140.72;100.00;52437.53;4987929;28;19922;-71
2023/07/11 03:45:05;;;;;;;;;;;;;;;-140.72;100.00;52449.72;4974458;28;19926;-71
2023/07/11 03:47:31;;;;;;;;;;;;;;;-140.72;100.00;52415.22;4992685;28;19921;-71
2023/07/11 03:49:56;;;;;;;;;;;;;;;-140.72;100.00;52455.78;4989833;28;19937;-71
2023/07/11 03:52:21;;;;;;;;;;;;;;;-140.72;100.00;52441.59;4993765;28;20012;-71
2023/07/11 03:54:47;;;;;;;;;;;;;;;-140.72;100.00;52441.59;4994207;28;19969;-71
2023/07/11 03:57:12;;;;;;;;;;;;;;;-140.72;100.00;52453.75;4977456;28;20320;-71
2023/07/11 03:59:37;;;;;;;;;;;;;;;-140.72;100.00;52457.81;4993902;28;19937;-71
2023/07/11 04:02:02;;;;;;;;;;;;;;;-140.72;100.00;52463.91;4993711;28;20014;-71
2023/07/11 04:04:28;;;;;;;;;;;;;;;-140.72;100.00;52431.44;4993519;28;19918;-72
2023/07/11 04:06:57;;;;;;;;;;;;;;;-140.72;100.00;52427.38;4965760;28;19918;-72
2023/07/11 04:09:22;;;;;;;;;;;;;;;-140.72;100.00;52411.16;4968752;28;19921;-72
2023/07/11 04:11:48;;;;;;;;;;;;;;;-140.72;100.00;52427.38;4998507;28;19979;-72
2023/07/11 04:14:31;;;;;;;;;;;;;;;-140.72;100.00;52431.44;4995930;28;19917;-75
2023/07/11 04:16:57;;;;;;;;;;;;;;;-140.72;100.00;52463.91;4975595;28;20025;-71
2023/07/11 04:19:22;;;;;;;;;;;;;;;-140.72;100.00;52459.84;4994038;28;19980;-71
2023/07/11 04:21:47;;;;;;;;;;;;;;;-140.72;100.00;52431.44;4992864;28;20283;-72
2023/07/11 04:24:14;;;;;;;;;;;;;;;-140.72;100.00;52423.31;4991665;28;19985;-72
2023/07/11 04:26:40;;;;;;;;;;;;;;;-140.72;100.00;52425.34;4985146;28;20380;-72
2023/07/11 04:29:12;;;;;;;;;;;;;;;-140.72;100.00;52435.50;4981745;28;19924;-71
2023/07/11 04:31:38;;;;;;;;;;;;;;;-140.72;100.00;52411.16;4988515;28;19925;-72
2023/07/11 04:34:03;;;;;;;;;;;;;;;-140.72;100.00;52445.66;4983549;28;19917;-70
2023/07/11 04:36:29;;;;;;;;;;;;;;;-140.72;100.00;52415.22;4978799;28;19926;-70
2023/07/11 04:38:54;;;;;;;;;;;;;;;-140.72;100.00;52415.22;4976734;28;20261;-70
2023/07/11 04:41:20;;;;;;;;;;;;;;;-140.72;100.00;52427.38;4990320;28;19926;-70
2023/07/11 04:43:45;;;;;;;;;;;;;;;-140.72;100.00;52409.13;4993426;28;19957;-70
2023/07/11 04:46:13;;;;;;;;;;;;;;;-140.72;100.00;52413.19;4997401;28;19922;-71
2023/07/11 04:48:39;;;;;;;;;;;;;;;-140.72;100.00;52417.25;4999144;28;19917;-71
2023/07/11 04:51:05;;;;;;;;;;;;;;;-140.72;100.00;52394.91;4993021;28;20240;-71
2023/07/11 04:53:31;;;;;;;;;;;;;;;-140.72;100.00;52409.13;4993783;28;20382;-71
2023/07/11 04:55:57;;;;;;;;;;;;;;;-140.72;100.00;52407.09;4980550;28;19945;-71
2023/07/11 04:58:24;;;;;;;;;;;;;;;-140.72;100.00;52417.25;4986169;28;19954;-70
2023/07/11 05:00:49;;;;;;;;;;;;;;;-140.72;100.00;52394.91;4989094;28;20017;-72
2023/07/11 05:03:14;;;;;;;;;;;;;;;-140.72;100.00;52447.69;4993380;28;19976;-72
2023/07/11 05:05:44;;;;;;;;;;;;;;;-140.72;100.00;52433.47;4975960;28;20013;-72
2023/07/11 05:08:09;;;;;;;;;;;;;;;-140.72;100.00;52415.22;4994004;28;19925;-73
2023/07/11 05:10:34;;;;;;;;;;;;;;;-140.72;100.00;52423.31;4986441;28;20313;-72
2023/07/11 05:12:59;;;;;;;;;;;;;;;-140.72;100.00;52417.25;4992941;28;20170;-72
2023/07/11 05:15:25;;;;;;;;;;;;;;;-140.72;100.00;52398.97;4989145;28;19933;-72
2023/07/11 05:17:50;;;;;;;;;;;;;;;-140.72;100.00;52433.47;4976039;28;19921;-72
2023/07/11 05:20:15;;;;;;;;;;;;;;;-140.72;100.00;52415.22;4992838;28;19937;-72
2023/07/11 05:22:40;;;;;;;;;;;;;;;-140.72;100.00;52374.63;4987638;28;19929;-72
2023/07/11 05:25:06;;;;;;;;;;;;;;;-140.72;100.00;52401.00;4990874;28;19986;-72
2023/07/11 05:27:31;;;;;;;;;;;;;;;-140.72;100.00;52396.94;4995791;28;19922;-72
2023/07/11 05:29:56;;;;;;;;;;;;;;;-140.72;100.00;52417.25;4993417;28;19941;-72
2023/07/11 05:32:24;;;;;;;;;;;;;;;-140.72;100.00;52405.06;4975790;28;19981;-72
2023/07/11 05:35:06;;;;;;;;;;;;;;;-140.72;100.00;52409.13;4980310;28;19918;-72
2023/07/11 05:37:31;;;;;;;;;;;;;;;-140.72;100.00;52413.19;4993420;28;19926;-72
2023/07/11 05:39:56;;;;;;;;;;;;;;;-140.72;100.00;52409.13;4978536;28;19918;-72
2023/07/11 05:42:21;;;;;;;;;;;;;;;-140.72;100.00;52403.03;4991640;28;20346;-72
2023/07/11 05:44:47;;;;;;;;;;;;;;;-140.72;100.00;52392.88;4989079;28;20209;-71
2023/07/11 05:47:12;;;;;;;;;;;;;;;-140.72;100.00;52401.00;4968981;28;19964;-72
2023/07/11 05:49:38;;;;;;;;;;;;;;;-140.72;100.00;52398.97;4998955;28;19918;-73
2023/07/11 05:52:03;;;;;;;;;;;;;;;-140.72;100.00;52368.53;5002115;28;19922;-71
2023/07/11 05:54:29;;;;;;;;;;;;;;;-140.72;100.00;52403.03;4984323;28;19941;-71
2023/07/11 05:56:54;;;;;;;;;;;;;;;-140.72;100.00;52356.38;5004709;28;19972;-73
2023/07/11 05:59:19;;;;;;;;;;;;;;;-140.72;100.00;52374.63;5004080;28;20303;-70
2023/07/11 06:01:44;;;;;;;;;;;;;;;-140.72;100.00;52386.81;4987156;28;19925;-70
2023/07/11 06:04:11;;;;;;;;;;;;;;;-140.72;100.00;52364.47;4991957;28;19972;-71
2023/07/11 06:06:41;;;;;;;;;;;;;;;-140.72;100.00;52325.94;4996082;28;19917;-70
2023/07/11 06:09:07;;;;;;;;;;;;;;;-140.72;100.00;52352.31;5007314;28;20372;-71
2023/07/11 06:11:32;;;;;;;;;;;;;;;-140.72;100.00;52382.75;4995112;28;20057;-70
2023/07/11 06:13:58;;;;;;;;;;;;;;;-140.72;100.00;52321.88;4986078;28;19925;-70
2023/07/11 06:16:23;;;;;;;;;;;;;;;-140.72;100.00;52344.19;5000258;28;19929;-70
2023/07/11 06:18:50;;;;;;;;;;;;;;;-140.72;70.57;52332.03;5002485;28;20345;-70
2023/07/11 06:21:15;;;;;;;;;;;;;;;-140.72;40.34;52317.81;4992650;28;20346;-71
2023/07/11 06:23:40;;;;;;;;;;;;;;;-140.72;0.00;52321.88;5000947;28;19968;-71
2023/07/11 06:26:08;;;;;;;;;;;;;;;-140.72;0.00;52315.78;5003064;28;19918;-70
2023/07/11 06:28:33;;;;;;;;;;;;;;;-140.72;0.00;52313.75;5003099;28;21044;-71
2023/07/11 06:31:00;;;;;;;;;;;;;;;-140.72;0.00;52332.03;5003072;28;19982;-70
2023/07/11 06:33:25;;;;;;;;;;;;;;;-140.72;0.00;52313.75;4983710;28;19922;-71
2023/07/11 06:35:51;;;;;;;;;;;;;;;-140.72;0.00;52301.59;4992735;28;19922;-70
2023/07/11 06:38:17;;;;;;;;;;;;;;;-140.72;0.00;52285.34;4997246;28;19933;-71
2023/07/11 06:40:52;;;;;;;;;;;;;;;-140.72;0.00;52285.34;4992267;28;20295;-71
2023/07/11 06:43:18;;;;;;;;;;;;;;;-140.72;0.00;52307.66;4985139;28;19968;-70
2023/07/11 06:45:47;;;;;;;;;;;;;;;-140.72;0.00;52281.28;4987652;28;20025;-70
2023/07/11 06:48:15;;;;;;;;;;;;;;;-140.72;0.00;52297.53;4981861;28;19918;-72
2023/07/11 06:50:41;;;;;;;;;;;;;;;-140.72;0.00;52297.53;4994269;28;19976;-70
2023/07/11 06:53:06;;;;;;;;;;;;;;;-140.72;0.00;52283.31;4996207;28;19918;-70
2023/07/11 06:55:31;;;;;;;;;;;;;;;-140.72;0.00;52301.59;4996641;28;19918;-70
2023/07/11 06:57:57;;;;;;;;;;;;;;;-140.72;0.00;52287.38;4982110;28;19922;-70
2023/07/11 07:00:24;;;;;;;;;;;;;;;-140.72;0.00;52271.16;4991742;28;20025;-70
2023/07/11 07:02:49;;;;;;;;;;;;;;;-140.72;0.00;52289.41;4993413;28;19941;-70
2023/07/11 07:05:15;;;;;;;;;;;;;;;-140.72;0.00;52250.84;4988553;28;19921;-70
2023/07/11 07:07:40;;;;;;;;;;;;;;;-140.72;0.00;52250.84;4990393;28;19974;-70
2023/07/11 07:10:06;;;;;;;;;;;;;;;-140.72;0.00;52256.94;4989687;28;19962;-70
2023/07/11 07:12:31;;;;;;;;;;;;;;;-140.72;0.00;52240.72;4997714;28;19932;-70
2023/07/11 07:14:56;;;;;;;;;;;;;;;-140.72;0.00;52269.13;4985713;28;19925;-70
2023/07/11 07:17:21;;;;;;;;;;;;;;;-140.72;0.00;52226.50;4987339;28;19918;-70
2023/07/11 07:19:47;;;;;;;;;;;;;;;-140.72;0.00;52226.50;4959845;28;19918;-70
2023/07/11 07:22:12;;;;;;;;;;;;;;;-140.72;0.00;52228.53;5004094;28;20286;-70
2023/07/11 07:24:37;;;;;;;;;;;;;;;-140.72;0.00;52236.66;4984516;28;19994;-70
2023/07/11 07:27:03;;;;;;;;;;;;;;;-140.72;0.00;52248.81;4976212;28;19922;-71
2023/07/11 07:29:28;;;;;;;;;;;;;;;-140.72;0.00;52218.38;4985779;28;20287;-71
2023/07/11 07:31:53;;;;;;;;;;;;;;;-140.72;0.00;52222.44;4993157;28;19997;-71
2023/07/11 07:34:18;;;;;;;;;;;;;;;-140.72;0.00;52198.09;4996954;28;19928;-71
2023/07/11 07:36:44;;;;;;;;;;;;;;;-140.72;0.00;52222.44;4993642;28;19990;-69
2023/07/11 07:39:09;;;;;;;;;;;;;;;-140.72;0.00;52222.44;4985587;28;19972;-70
2023/07/11 07:41:34;;;;;;;;;;;;;;;-140.72;0.00;52187.97;4991652;28;19929;-70
2023/07/11 07:43:59;;;;;;;;;;;;;;;-140.72;0.00;52157.53;4996693;28;19918;-70
2023/07/11 07:46:25;;;;;;;;;;;;;;;-140.72;0.00;52214.34;4997491;28;19921;-71
2023/07/11 07:48:50;;;;;;;;;;;;;;;-140.72;0.00;52185.94;4995133;28;19980;-70
2023/07/11 07:51:17;;;;;;;;;;;;;;;-140.72;0.00;52222.44;4982998;28;19957;-70
2023/07/11 07:53:42;;;;;;;;;;;;;;;-140.72;0.00;52175.78;4986994;28;19925;-70
2023/07/11 07:56:10;;;;;;;;;;;;;;;-140.72;0.00;52179.84;4978400;28;19922;-70
2023/07/11 07:58:35;;;;;;;;;;;;;;;-140.72;0.00;52173.75;4994797;28;19980;-71
2023/07/11 08:01:03;;;;;;;;;;;;;;;-140.72;0.00;52171.72;4993625;28;19930;-71
2023/07/11 08:03:28;;;;;;;;;;;;;;;-140.72;0.00;52165.63;4994109;28;20348;-71
2023/07/11 08:05:54;;;;;;;;;;;;;;;-140.72;0.00;52151.44;4992921;28;20001;-71
2023/07/11 08:08:19;;;;;;;;;;;;;;;-140.72;0.00;52177.81;4976802;28;19926;-71
2023/07/11 08:10:45;;;;;;;;;;;;;;;-140.72;0.00;52139.25;4975688;28;20287;-71
2023/07/11 08:13:10;;;;;;;;;;;;;;;-140.72;0.00;52194.03;4994135;28;20012;-71
2023/07/11 08:15:35;;;;;;;;;;;;;;;-140.72;0.00;52123.03;4993309;28;20380;-71
2023/07/11 08:18:00;;;;;;;;;;;;;;;-140.72;0.00;52151.44;4993878;28;20068;-70
2023/07/11 08:20:26;;;;;;;;;;;;;;;-140.72;0.00;52153.47;4980718;28;20055;-71
2023/07/11 08:22:51;;;;;;;;;;;;;;;-140.72;0.00;52171.72;4994021;28;19981;-71
2023/07/11 08:25:16;;;;;;;;;;;;;;;-140.72;0.00;52143.31;4976315;28;19957;-71
2023/07/11 08:27:41;;;;;;;;;;;;;;;-140.72;0.00;52147.38;4975617;28;19952;-70
2023/07/11 08:30:07;;;;;;;;;;;;;;;-140.72;0.00;52171.72;4993501;28;19918;-70
2023/07/11 08:32:32;;;;;;;;;;;;;;;-140.72;0.00;52153.47;4984372;28;20013;-71
2023/07/11 08:34:58;;;;;;;;;;;;;;;-140.72;0.00;52118.97;4992259;28;19917;-70
2023/07/11 08:37:23;;;;;;;;;;;;;;;-140.72;0.00;52112.88;4993214;28;20320;-71
2023/07/11 08:39:48;;;;;;;;;;;;;;;-140.72;0.00;52125.06;4990424;28;20295;-71
2023/07/11 08:42:22;;;;;;;;;;;;;;;-140.72;0.00;52139.25;4984712;28;19918;-70
2023/07/11 08:44:52;;;;;;;;;;;;;;;-140.72;0.00;52143.31;4993520;28;19918;-70
2023/07/11 08:47:24;;;;;;;;;;;;;;;-140.72;0.00;52147.38;4985493;28;19917;-71
2023/07/11 08:50:08;;;;;;;;;;;;;;;-140.72;0.00;52159.56;4991844;28;19926;-70
2023/07/11 08:52:34;;;;;;;;;;;;;;;-140.72;0.00;52088.53;4976217;28;20355;-70
2023/07/11 08:55:02;;;;;;;;;;;;;;;-140.72;0.00;52086.50;4992382;28;20311;-71
2023/07/11 08:57:29;;;;;;;;;;;;;;;-140.72;0.00;52084.47;4997658;28;19918;-71
2023/07/11 09:00:12;;;;;;;;;;;;;;;-140.72;0.00;52076.34;4987872;28;20138;-71
2023/07/11 09:02:40;;;;;;;;;;;;;;;-140.72;0.00;52068.25;4989130;28;19925;-71
2023/07/11 09:05:12;;;;;;;;;;;;;;;-140.72;0.00;52086.50;4976589;28;20291;-70
2023/07/11 09:07:44;;;;;;;;;;;;;;;-140.72;0.00;52043.91;4973752;28;19956;-71
2023/07/11 09:10:12;;;;;;;;;;;;;;;-140.72;0.00;52001.28;4992969;28;20566;-71
2023/07/11 09:12:56;;;;;;;;;;;;;;;-140.72;0.00;52074.34;4991172;28;19925;-71
2023/07/11 09:15:28;;;;;;;;;;;;;;;-140.72;0.00;52047.97;4992519;28;20004;-71
2023/07/11 09:18:12;;;;;;;;;;;;;;;-140.72;0.00;51999.25;4988375;28;19942;-71
2023/07/11 09:20:43;;;;;;;;;;;;;;;-140.72;0.00;52021.56;4985177;28;19989;-70
2023/07/11 09:23:31;;;;;;;;;;;;;;;-140.72;0.00;51964.78;4980811;28;19944;-69
2023/07/11 09:26:00;;;;;;;;;;;;;;;-140.72;0.00;51970.84;4986482;28;19918;-70
2023/07/11 09:28:27;;;;;;;;;;;;;;;-140.72;0.00;52025.63;4991652;28;19937;-69
2023/07/11 09:31:05;;;;;;;;;;;;;;;-140.72;0.00;51985.06;4989839;28;19942;-69
2023/07/11 09:33:32;;;;;;;;;;;;;;;-140.72;0.00;51966.81;4984945;28;19976;-70
2023/07/11 09:35:58;;;;;;;;;;;;;;;-140.72;0.00;51932.31;4985662;28;19922;-70
2023/07/11 09:38:33;;;;;;;;;;;;;;;-140.72;0.00;51934.34;4992963;28;19917;-70
2023/07/11 09:41:15;;;;;;;;;;;;;;;-140.72;0.00;51993.19;4992329;28;19922;-70
2023/07/11 09:43:41;;;;;;;;;;;;;;;-140.72;0.00;52011.44;4982811;28;19998;-71
2023/07/11 09:46:14;;;;;;;;;;;;;;;-140.72;0.00;52017.53;4975322;28;20007;-71
2023/07/11 09:48:40;;;;;;;;;;;;;;;-140.72;0.00;51989.13;4992801;28;20296;-71
2023/07/11 09:51:16;;;;;;;;;;;;;;;-140.72;0.00;51995.19;4979495;28;19930;-71
2023/07/11 09:53:45;;;;;;;;;;;;;;;-140.72;0.00;51905.94;4980768;28;19918;-71
2023/07/11 09:56:15;;;;;;;;;;;;;;;-140.72;0.00;51912.03;4979436;28;19953;-71
2023/07/11 09:58:45;;;;;;;;;;;;;;;-140.72;0.00;51989.13;4977610;28;20364;-71
2023/07/11 10:01:22;;;;;;;;;;;;;;;-140.72;0.00;51926.22;4992015;28;19925;-71
2023/07/11 10:03:48;;;;;;;;;;;;;;;-140.72;0.00;51938.41;4992525;28;19964;-70
2023/07/11 10:06:41;;;;;;;;;;;;;;;-140.72;0.00;51912.03;4992774;28;20288;-71
2023/07/11 10:09:24;;;;;;;;;;;;;;;-140.72;0.00;51855.22;4953029;28;19918;-71
2023/07/11 10:11:53;;;;;;;;;;;;;;;-140.72;0.00;51828.84;4991273;28;20383;-71
2023/07/11 10:14:19;;;;;;;;;;;;;;;-140.72;0.00;51828.84;4992270;28;19941;-71
2023/07/11 10:16:45;;;;;;;;;;;;;;;-140.72;0.00;51889.69;4989772;28;20016;-71
2023/07/11 10:19:17;;;;;;;;;;;;;;;-140.72;0.00;51924.19;4981700;28;19968;-71
2023/07/11 10:21:49;;;;;;;;;;;;;;;-140.72;0.00;51936.38;4991179;28;19972;-71
2023/07/11 10:24:16;;;;;;;;;;;;;;;-140.72;0.00;51895.78;4974328;28;20018;-71
2023/07/11 10:26:42;;;;;;;;;;;;;;;-140.72;0.00;51962.75;4987175;28;19926;-71
2023/07/11 10:29:14;;;;;;;;;;;;;;;-140.72;0.00;52013.47;4958899;28;20004;-71
2023/07/11 10:31:44;;;;;;;;;;;;;;;-140.72;0.00;51997.22;4973942;28;19932;-71
2023/07/11 10:34:19;;;;;;;;;;;;;;;-140.72;0.00;51938.41;4981673;28;19917;-71
2023/07/11 10:36:46;;;;;;;;;;;;;;;-140.72;0.00;51901.88;4996216;28;19921;-71
2023/07/11 10:39:15;;;;;;;;;;;;;;;-140.72;0.00;51830.88;4981439;28;19996;-71
2023/07/11 10:41:52;;;;;;;;;;;;;;;-140.72;0.00;51776.09;4987276;28;19941;-71
2023/07/11 10:44:20;;;;;;;;;;;;;;;-140.72;0.00;51802.47;4999460;28;20272;-71
2023/07/11 10:46:49;;;;;;;;;;;;;;;-140.72;0.00;51776.09;4998002;28;19991;-71
2023/07/11 10:49:21;;;;;;;;;;;;;;;-140.72;0.00;51774.06;4996361;28;19924;-71
2023/07/11 10:52:08;;;;;;;;;;;;;;;-140.72;0.00;51800.44;4992062;28;19921;-70
2023/07/11 10:54:40;;;;;;;;;;;;;;;-140.72;0.00;51802.47;4978655;28;20371;-70
2023/07/11 10:57:13;;;;;;;;;;;;;;;-140.72;0.00;51776.09;4985306;28;19922;-70
2023/07/11 10:59:38;;;;;;;;;;;;;;;-140.72;0.00;51903.91;4983290;28;19918;-70
2023/07/11 11:02:11;;;;;;;;;;;;;;;-140.72;0.00;51891.72;4985110;28;19924;-70
2023/07/11 11:04:48;;;;;;;;;;;;;;;-140.72;0.00;51885.66;4994392;28;19918;-71
2023/07/11 11:07:24;;;;;;;;;;;;;;;-140.72;0.00;51784.19;4995184;28;20372;-70
2023/07/11 11:09:53;;;;;;;;;;;;;;;-140.72;0.00;51765.94;4995193;28;19972;-70
2023/07/11 11:12:24;;;;;;;;;;;;;;;-140.72;0.00;51770.00;4980518;28;19929;-70
2023/07/11 11:14:58;;;;;;;;;;;;;;;-140.72;0.00;51778.13;4996075;28;19969;-70
2023/07/11 11:17:23;;;;;;;;;;;;;;;-140.72;0.00;51707.09;4977742;28;19925;-70
2023/07/11 11:19:51;;;;;;;;;;;;;;;-140.72;0.00;51735.50;4995902;28;20335;-71
2023/07/11 11:22:25;;;;;;;;;;;;;;;-140.72;0.00;51696.97;4978849;28;20487;-71
2023/07/11 11:25:00;;;;;;;;;;;;;;;-140.72;0.00;51656.38;4997275;28;19922;-69
2023/07/11 11:27:44;;;;;;;;;;;;;;;-140.72;0.00;51717.25;4979953;28;19936;-69
2023/07/11 11:30:15;;;;;;;;;;;;;;;-140.72;0.00;51794.34;4982920;28;20340;-70
2023/07/11 11:33:07;;;;;;;;;;;;;;;-140.72;0.00;51784.19;4978005;28;19922;-70
2023/07/11 11:36:04;;;;;;;;;;;;;;;-140.72;0.00;51790.28;4964912;28;19925;-70
2023/07/11 11:38:36;;;;;;;;;;;;;;;-140.72;0.00;51887.66;4968027;28;19925;-71
2023/07/11 11:41:04;;;;;;;;;;;;;;;-140.72;0.00;51826.81;4995226;28;19969;-71
2023/07/11 11:43:29;;;;;;;;;;;;;;;-140.72;0.00;51753.78;4995258;28;20429;-71
2023/07/11 11:45:56;;;;;;;;;;;;;;;-140.72;0.00;51871.44;4982024;28;19918;-71
2023/07/11 11:48:31;;;;;;;;;;;;;;;-140.72;0.00;51881.59;4994782;28;20324;-71
2023/07/11 11:50:57;;;;;;;;;;;;;;;-140.72;0.00;51897.81;4989121;28;19922;-70
2023/07/11 11:53:33;;;;;;;;;;;;;;;-140.72;0.00;51822.75;4975076;28;19964;-70
2023/07/11 11:56:03;;;;;;;;;;;;;;;-140.72;0.00;51901.88;4976117;28;19918;-71
2023/07/11 11:58:30;;;;;;;;;;;;;;;-140.72;0.00;51885.66;4995010;28;20315;-71
2023/07/11 12:00:57;;;;;;;;;;;;;;;-140.72;0.00;51924.19;4995988;28;19969;-71
2023/07/11 12:03:32;;;;;;;;;;;;;;;-140.72;0.00;51851.16;4984824;28;19918;-72
2023/07/11 12:05:59;;;;;;;;;;;;;;;-140.72;0.00;51794.34;4981690;28;19988;-71
2023/07/11 12:08:26;;;;;;;;;;;;;;;-140.72;0.00;51849.13;4994011;28;20406;-71
2023/07/11 12:11:10;;;;;;;;;;;;;;;-140.72;0.00;51770.00;4981194;28;19972;-71
2023/07/11 12:13:37;;;;;;;;;;;;;;;-140.72;0.00;51765.94;4993921;28;20394;-71
2023/07/11 12:16:22;;;;;;;;;;;;;;;-140.72;0.00;51778.13;4981681;28;19917;-71
2023/07/11 12:18:51;;;;;;;;;;;;;;;-140.72;0.00;51794.34;4979713;28;20399;-72
2023/07/11 12:21:24;;;;;;;;;;;;;;;-140.72;0.00;51847.09;4994797;28;19925;-71
2023/07/11 12:23:50;;;;;;;;;;;;;;;-140.72;0.00;51877.53;4994375;28;19934;-72
2023/07/11 12:26:20;;;;;;;;;;;;;;;-140.72;0.00;51903.91;4996329;28;19965;-72
2023/07/11 12:28:46;;;;;;;;;;;;;;;-140.72;0.00;51877.53;4998451;28;19929;-71